Time;durP1;ratioP1;P1;durP2;ratioP2;P2;SDS_P1;SDS_P2;PMS_P1;PMS_P2;Temp;Humidity;BMP_temperature;BMP_pressure;BME280_temperature;BME280_humidity;BME280_pressure;Samples;Min_cycle;Max_cycle;Signal;HPM_P1;HPM_P2
2024/01/16 00:00:56;;;;;;;27.77;12.77;;;;;;;;;;5065620;28;20225;-73
2024/01/16 00:03:21;;;;;;;25.43;11.97;;;;;;;;;;5042407;28;20859;-73
2024/01/16 00:05:47;;;;;;;30.60;14.23;;;;;;;;;;5031073;28;20278;-72
2024/01/16 00:08:12;;;;;;;28.83;13.37;;;;;;;;;;5047099;28;20662;-72
2024/01/16 00:10:37;;;;;;;30.90;13.30;;;;;;;;;;5048449;28;20221;-72
2024/01/16 00:13:03;;;;;;;30.97;13.23;;;;;;;;;;5046862;28;20231;-72
2024/01/16 00:15:28;;;;;;;29.53;13.63;;;;;;;;;;5031358;28;20209;-73
2024/01/16 00:17:54;;;;;;;30.47;13.30;;;;;;;;;;5065083;28;20609;-73
2024/01/16 00:20:19;;;;;;;28.83;13.73;;;;;;;;;;5065105;28;20231;-73
2024/01/16 00:22:44;;;;;;;27.10;12.33;;;;;;;;;;5047615;28;20732;-73
2024/01/16 00:25:10;;;;;;;29.80;13.30;;;;;;;;;;5045542;28;20285;-72
2024/01/16 00:27:35;;;;;;;31.40;12.87;;;;;;;;;;5065487;28;20970;-72
2024/01/16 00:30:01;;;;;;;28.20;13.40;;;;;;;;;;5047223;28;20788;-73
2024/01/16 00:32:26;;;;;;;29.80;12.40;;;;;;;;;;5030878;28;20216;-72
2024/01/16 00:34:52;;;;;;;29.87;12.00;;;;;;;;;;5046649;28;20759;-72
2024/01/16 00:37:17;;;;;;;28.70;13.20;;;;;;;;;;5047188;28;20252;-73
2024/01/16 00:39:43;;;;;;;27.30;12.30;;;;;;;;;;5047848;28;20224;-72
2024/01/16 00:42:08;;;;;;;26.27;12.20;;;;;;;;;;5046640;28;20274;-72
2024/01/16 00:44:34;;;;;;;27.03;12.60;;;;;;;;;;5029946;28;20255;-71
2024/01/16 00:47:01;;;;;;;29.70;13.13;;;;;;;;;;5046874;28;20821;-73
2024/01/16 00:49:26;;;;;;;28.03;12.60;;;;;;;;;;5065410;28;20282;-72
2024/01/16 00:51:52;;;;;;;30.10;13.97;;;;;;;;;;5029704;28;20228;-73
2024/01/16 00:54:17;;;;;;;27.07;12.70;;;;;;;;;;5046948;28;20240;-72
2024/01/16 00:56:42;;;;;;;26.83;12.73;;;;;;;;;;5047310;28;20320;-72
2024/01/16 00:59:08;;;;;;;27.17;12.97;;;;;;;;;;5046591;28;20256;-71
2024/01/16 01:01:33;;;;;;;28.93;12.87;;;;;;;;;;5046761;28;20216;-72
2024/01/16 01:03:58;;;;;;;29.20;13.50;;;;;;;;;;5046710;28;20239;-73
2024/01/16 01:06:24;;;;;;;26.53;12.50;;;;;;;;;;5045929;28;20762;-73
2024/01/16 01:08:49;;;;;;;26.90;12.23;;;;;;;;;;5064661;28;20237;-73
2024/01/16 01:11:14;;;;;;;27.20;12.33;;;;;;;;;;5064093;28;20221;-73
2024/01/16 01:13:40;;;;;;;26.43;11.63;;;;;;;;;;5046323;28;20609;-72
2024/01/16 01:16:06;;;;;;;24.67;11.63;;;;;;;;;;5061563;28;20246;-72
2024/01/16 01:18:31;;;;;;;24.77;12.10;;;;;;;;;;5064845;28;20229;-72
2024/01/16 01:20:56;;;;;;;22.10;11.03;;;;;;;;;;5045843;28;20213;-72
2024/01/16 01:23:21;;;;;;;22.17;11.10;;;;;;;;;;5063720;28;20217;-72
2024/01/16 01:25:47;;;;;;;24.47;11.73;;;;;;;;;;5046763;28;20224;-72
2024/01/16 01:28:12;;;;;;;27.53;12.60;;;;;;;;;;5063988;28;20228;-72
2024/01/16 01:30:38;;;;;;;26.67;12.40;;;;;;;;;;5029673;28;20274;-72
2024/01/16 01:33:03;;;;;;;25.17;12.43;;;;;;;;;;5042963;28;20637;-73
2024/01/16 01:35:29;;;;;;;24.17;11.27;;;;;;;;;;5046345;28;20224;-73
2024/01/16 01:37:54;;;;;;;24.20;11.70;;;;;;;;;;5029311;28;20221;-73
2024/01/16 01:40:19;;;;;;;25.13;11.60;;;;;;;;;;5029076;28;20900;-72
2024/01/16 01:42:45;;;;;;;23.33;12.03;;;;;;;;;;5029397;28;20216;-73
2024/01/16 01:45:10;;;;;;;24.70;11.40;;;;;;;;;;5029012;28;20255;-73
2024/01/16 01:47:36;;;;;;;21.77;10.27;;;;;;;;;;5027735;28;20216;-73
2024/01/16 01:50:03;;;;;;;21.90;11.20;;;;;;;;;;5045367;28;20217;-73
2024/01/16 01:52:28;;;;;;;22.83;11.00;;;;;;;;;;5045958;28;20224;-72
2024/01/16 01:54:54;;;;;;;20.97;10.10;;;;;;;;;;5028829;28;20233;-72
2024/01/16 01:57:19;;;;;;;22.97;10.63;;;;;;;;;;5029550;28;20216;-73
2024/01/16 01:59:44;;;;;;;22.63;10.77;;;;;;;;;;5029343;28;20220;-73
2024/01/16 02:02:10;;;;;;;21.63;10.37;;;;;;;;;;5029069;28;21099;-73
2024/01/16 02:04:35;;;;;;;25.47;10.60;;;;;;;;;;5045943;28;20307;-72
2024/01/16 02:07:01;;;;;;;19.93;10.17;;;;;;;;;;5045214;28;20221;-73
2024/01/16 02:09:26;;;;;;;22.63;10.30;;;;;;;;;;5063563;28;20232;-73
2024/01/16 02:11:51;;;;;;;25.20;10.47;;;;;;;;;;5026870;28;20208;-73
2024/01/16 02:14:17;;;;;;;20.87;10.07;;;;;;;;;;5029454;28;20770;-73
2024/01/16 02:16:44;;;;;;;23.17;10.47;;;;;;;;;;5045763;28;20271;-73
2024/01/16 02:19:10;;;;;;;20.70;10.37;;;;;;;;;;5045175;28;20224;-72
2024/01/16 02:21:42;;;;;;;23.73;11.23;;;;;;;;;;5029430;28;20859;-72
2024/01/16 02:24:08;;;;;;;21.70;10.53;;;;;;;;;;5027953;28;20688;-72
2024/01/16 02:26:33;;;;;;;21.60;10.40;;;;;;;;;;5029129;28;20311;-72
2024/01/16 02:29:00;;;;;;;20.53;10.30;;;;;;;;;;5028078;28;20308;-72
2024/01/16 02:31:26;;;;;;;21.40;10.47;;;;;;;;;;5028577;28;20209;-72
2024/01/16 02:33:51;;;;;;;21.57;10.60;;;;;;;;;;5044398;28;20269;-72
2024/01/16 02:36:16;;;;;;;23.33;11.00;;;;;;;;;;5046276;28;20674;-73
2024/01/16 02:38:42;;;;;;;25.20;11.10;;;;;;;;;;5064003;28;20228;-72
2024/01/16 02:41:07;;;;;;;22.57;10.13;;;;;;;;;;5063177;28;20227;-73
2024/01/16 02:43:32;;;;;;;22.40;10.37;;;;;;;;;;5028298;28;20237;-72
2024/01/16 02:45:58;;;;;;;20.43;10.13;;;;;;;;;;5044978;28;20882;-72
2024/01/16 02:48:23;;;;;;;21.73;10.00;;;;;;;;;;5045422;28;20225;-73
2024/01/16 02:50:48;;;;;;;23.60;10.03;;;;;;;;;;5044996;28;20307;-71
2024/01/16 02:53:14;;;;;;;22.03;9.90;;;;;;;;;;5044674;28;20839;-72
2024/01/16 02:55:39;;;;;;;19.83;9.60;;;;;;;;;;5062597;28;20217;-73
2024/01/16 02:58:04;;;;;;;23.07;10.60;;;;;;;;;;5044362;28;20439;-73
2024/01/16 03:00:30;;;;;;;22.03;10.37;;;;;;;;;;5029044;28;20386;-73
2024/01/16 03:02:55;;;;;;;21.83;10.07;;;;;;;;;;5028291;28;20666;-71
2024/01/16 03:05:20;;;;;;;21.43;10.03;;;;;;;;;;5028731;28;20217;-71
2024/01/16 03:07:46;;;;;;;22.73;10.17;;;;;;;;;;5061213;28;20717;-72
2024/01/16 03:10:11;;;;;;;23.37;10.53;;;;;;;;;;5026548;28;20920;-71
2024/01/16 03:12:37;;;;;;;21.57;10.37;;;;;;;;;;5028685;28;20224;-71
2024/01/16 03:15:02;;;;;;;23.17;10.97;;;;;;;;;;5042536;28;20233;-71
2024/01/16 03:17:28;;;;;;;21.87;9.90;;;;;;;;;;5063171;28;20217;-72
2024/01/16 03:19:53;;;;;;;16.70;7.03;;;;;;;;;;5047730;28;20663;-71
2024/01/16 03:22:19;;;;;;;9.93;4.97;;;;;;;;;;5066188;28;20271;-71
2024/01/16 03:24:44;;;;;;;7.97;4.10;;;;;;;;;;5048612;28;20225;-72
2024/01/16 03:27:09;;;;;;;7.00;4.37;;;;;;;;;;5047381;28;20220;-73
2024/01/16 03:29:35;;;;;;;6.40;3.93;;;;;;;;;;5047977;28;20303;-72
2024/01/16 03:32:00;;;;;;;7.40;4.37;;;;;;;;;;5065457;28;20228;-73
2024/01/16 03:34:26;;;;;;;6.97;4.70;;;;;;;;;;5048399;28;20236;-73
2024/01/16 03:36:52;;;;;;;6.73;4.37;;;;;;;;;;5031828;28;20600;-72
2024/01/16 03:39:18;;;;;;;6.53;4.30;;;;;;;;;;5048079;28;20305;-71
2024/01/16 03:41:43;;;;;;;6.73;4.53;;;;;;;;;;5049399;28;20717;-71
2024/01/16 03:44:09;;;;;;;6.80;4.27;;;;;;;;;;5064444;28;20217;-71
2024/01/16 03:46:34;;;;;;;6.30;4.17;;;;;;;;;;5047193;28;20217;-73
2024/01/16 03:49:00;;;;;;;6.33;4.30;;;;;;;;;;5047710;28;21036;-72
2024/01/16 03:51:25;;;;;;;6.30;4.17;;;;;;;;;;5046511;28;20213;-73
2024/01/16 03:53:50;;;;;;;5.93;3.93;;;;;;;;;;5047830;28;20251;-73
2024/01/16 03:56:16;;;;;;;6.30;3.80;;;;;;;;;;5047680;28;20808;-73
2024/01/16 03:58:41;;;;;;;6.00;3.70;;;;;;;;;;5066214;28;20221;-73
2024/01/16 04:01:07;;;;;;;7.07;4.07;;;;;;;;;;5064495;28;20232;-72
2024/01/16 04:03:32;;;;;;;5.47;3.80;;;;;;;;;;5047078;28;20223;-71
2024/01/16 04:05:57;;;;;;;5.10;3.60;;;;;;;;;;5047229;28;20235;-73
2024/01/16 04:08:23;;;;;;;4.87;3.60;;;;;;;;;;5047449;28;20240;-72
2024/01/16 04:10:48;;;;;;;5.17;3.40;;;;;;;;;;5031871;28;20235;-73
2024/01/16 04:13:13;;;;;;;4.30;3.07;;;;;;;;;;5062686;28;20221;-73
2024/01/16 04:15:39;;;;;;;4.43;3.20;;;;;;;;;;5031505;28;20217;-73
2024/01/16 04:18:04;;;;;;;3.70;3.13;;;;;;;;;;5063315;28;20697;-72
2024/01/16 04:20:30;;;;;;;3.37;2.93;;;;;;;;;;5065133;28;20219;-73
2024/01/16 04:22:56;;;;;;;5.13;3.27;;;;;;;;;;5030488;28;20315;-73
2024/01/16 04:25:21;;;;;;;3.93;2.73;;;;;;;;;;5063897;28;20220;-73
2024/01/16 04:27:47;;;;;;;4.20;2.70;;;;;;;;;;5031070;28;20213;-72
2024/01/16 04:30:12;;;;;;;3.57;2.60;;;;;;;;;;5029785;28;20327;-73
2024/01/16 04:32:38;;;;;;;3.20;2.43;;;;;;;;;;5047191;28;20227;-72
2024/01/16 04:35:04;;;;;;;3.00;2.30;;;;;;;;;;5046760;28;20248;-73
2024/01/16 04:37:29;;;;;;;2.83;2.40;;;;;;;;;;5047656;28;20212;-72
2024/01/16 04:39:54;;;;;;;2.83;2.20;;;;;;;;;;5044884;28;20217;-73
2024/01/16 04:42:20;;;;;;;2.70;2.40;;;;;;;;;;5046000;28;20224;-72
2024/01/16 04:44:45;;;;;;;2.57;2.20;;;;;;;;;;5070143;28;20228;-72
2024/01/16 04:47:11;;;;;;;3.20;2.10;;;;;;;;;;5023851;28;20229;-73
2024/01/16 04:49:37;;;;;;;3.37;2.33;;;;;;;;;;5036487;28;20220;-73
2024/01/16 04:52:03;;;;;;;2.67;2.00;;;;;;;;;;5045735;28;20286;-72
2024/01/16 04:54:28;;;;;;;2.20;2.00;;;;;;;;;;5053799;28;20939;-72
2024/01/16 04:56:53;;;;;;;3.77;2.30;;;;;;;;;;5025471;28;20220;-72
2024/01/16 04:59:19;;;;;;;3.40;2.50;;;;;;;;;;5032841;28;20219;-73
2024/01/16 05:01:44;;;;;;;3.07;2.30;;;;;;;;;;5063975;28;20589;-71
2024/01/16 05:04:10;;;;;;;3.03;2.27;;;;;;;;;;5063141;28;20248;-72
2024/01/16 05:06:35;;;;;;;3.17;2.27;;;;;;;;;;5030052;28;20316;-73
2024/01/16 05:09:01;;;;;;;3.63;2.20;;;;;;;;;;5045710;28;20248;-73
2024/01/16 05:11:26;;;;;;;2.73;2.20;;;;;;;;;;5046980;28;20233;-73
2024/01/16 05:13:57;;;;;;;4.63;2.40;;;;;;;;;;5045649;28;20247;-74
2024/01/16 05:16:23;;;;;;;2.13;1.93;;;;;;;;;;5047424;28;20300;-71
2024/01/16 05:18:48;;;;;;;2.73;2.00;;;;;;;;;;5064526;28;20223;-72
2024/01/16 05:21:14;;;;;;;3.00;2.07;;;;;;;;;;5063661;28;20228;-72
2024/01/16 05:23:39;;;;;;;3.23;2.20;;;;;;;;;;5046362;28;20225;-73
2024/01/16 05:26:04;;;;;;;2.73;2.10;;;;;;;;;;5046160;28;20236;-72
2024/01/16 05:28:30;;;;;;;2.60;2.13;;;;;;;;;;5045884;28;20816;-72
2024/01/16 05:30:55;;;;;;;2.23;2.00;;;;;;;;;;5063748;28;20282;-73
2024/01/16 05:33:20;;;;;;;2.37;2.00;;;;;;;;;;5062551;28;20703;-72
2024/01/16 05:35:45;;;;;;;3.23;2.30;;;;;;;;;;5029501;28;20278;-72
2024/01/16 05:38:12;;;;;;;3.20;2.27;;;;;;;;;;5044926;28;20307;-71
2024/01/16 05:40:37;;;;;;;3.50;2.27;;;;;;;;;;5043654;28;20296;-71
2024/01/16 05:43:03;;;;;;;2.70;2.20;;;;;;;;;;5059142;28;20323;-71
2024/01/16 05:45:28;;;;;;;3.20;2.20;;;;;;;;;;5046031;28;20217;-72
2024/01/16 05:47:53;;;;;;;3.17;2.33;;;;;;;;;;5028398;28;20212;-72
2024/01/16 05:50:19;;;;;;;2.47;2.20;;;;;;;;;;5044496;28;20239;-71
2024/01/16 05:52:44;;;;;;;2.73;2.00;;;;;;;;;;5062201;28;20227;-71
2024/01/16 05:55:10;;;;;;;3.23;2.33;;;;;;;;;;5044803;28;20236;-71
2024/01/16 05:57:37;;;;;;;2.47;2.00;;;;;;;;;;5060385;28;20282;-71
2024/01/16 06:00:03;;;;;;;3.20;2.20;;;;;;;;;;5044036;28;20227;-71
2024/01/16 06:02:28;;;;;;;2.47;1.90;;;;;;;;;;5044439;28;20219;-71
2024/01/16 06:04:54;;;;;;;3.00;2.10;;;;;;;;;;5060590;28;20221;-71
2024/01/16 06:07:19;;;;;;;3.37;2.10;;;;;;;;;;5043735;28;20751;-72
2024/01/16 06:09:44;;;;;;;3.13;2.00;;;;;;;;;;5061006;28;20772;-73
2024/01/16 06:12:12;;;;;;;2.50;2.00;;;;;;;;;;5028071;28;20311;-72
2024/01/16 06:14:37;;;;;;;3.37;2.27;;;;;;;;;;5063713;28;20236;-72
2024/01/16 06:17:03;;;;;;;3.90;2.33;;;;;;;;;;5061763;28;20511;-72
2024/01/16 06:19:28;;;;;;;3.97;2.30;;;;;;;;;;5062866;28;20224;-72
2024/01/16 06:21:53;;;;;;;3.93;2.10;;;;;;;;;;5063403;28;20220;-73
2024/01/16 06:24:19;;;;;;;5.43;2.47;;;;;;;;;;5028326;28;20235;-72
2024/01/16 06:26:44;;;;;;;2.60;2.20;;;;;;;;;;5061953;28;20229;-72
2024/01/16 06:29:09;;;;;;;3.00;2.10;;;;;;;;;;5061806;28;20232;-73
2024/01/16 06:31:35;;;;;;;3.50;2.00;;;;;;;;;;5045408;28;20878;-71
2024/01/16 06:34:00;;;;;;;3.40;2.00;;;;;;;;;;5063416;28;20244;-72
2024/01/16 06:36:25;;;;;;;3.80;2.17;;;;;;;;;;5064070;28;20224;-72
2024/01/16 06:38:51;;;;;;;2.40;2.00;;;;;;;;;;5044741;28;20229;-72
2024/01/16 06:41:16;;;;;;;3.10;2.10;;;;;;;;;;5028729;28;20955;-71
2024/01/16 06:43:41;;;;;;;3.30;2.10;;;;;;;;;;5045571;28;20297;-70
2024/01/16 06:46:07;;;;;;;3.77;2.17;;;;;;;;;;5043045;28;20228;-72
2024/01/16 06:48:34;;;;;;;3.67;2.50;;;;;;;;;;5061642;28;20244;-72
2024/01/16 06:51:01;;;;;;;2.83;2.13;;;;;;;;;;5045034;28;20220;-72
2024/01/16 06:53:26;;;;;;;2.97;2.13;;;;;;;;;;5047493;28;20226;-73
2024/01/16 06:55:51;;;;;;;3.63;2.30;;;;;;;;;;5063243;28;20228;-72
2024/01/16 06:58:17;;;;;;;3.00;2.10;;;;;;;;;;5044327;28;20220;-71
2024/01/16 07:00:43;;;;;;;3.23;2.33;;;;;;;;;;5049487;28;20286;-71
2024/01/16 07:03:08;;;;;;;5.27;2.30;;;;;;;;;;5066655;28;20623;-71
2024/01/16 07:05:33;;;;;;;2.87;2.20;;;;;;;;;;5048884;28;20236;-71
2024/01/16 07:07:59;;;;;;;5.53;3.00;;;;;;;;;;5048421;28;20255;-72
2024/01/16 07:10:24;;;;;;;4.90;2.50;;;;;;;;;;5032087;28;20716;-72
2024/01/16 07:12:51;;;;;;;3.80;2.33;;;;;;;;;;5067176;28;20236;-72
2024/01/16 07:15:16;;;;;;;3.83;2.40;;;;;;;;;;5031072;28;20236;-71
2024/01/16 07:17:41;;;;;;;4.20;2.33;;;;;;;;;;5064361;28;20254;-71
2024/01/16 07:20:07;;;;;;;4.00;2.30;;;;;;;;;;5031143;28;20228;-71
2024/01/16 07:22:34;;;;;;;3.73;2.30;;;;;;;;;;5065203;28;20270;-70
2024/01/16 07:24:59;;;;;;;4.97;2.90;;;;;;;;;;5048276;28;20225;-70
2024/01/16 07:27:24;;;;;;;6.53;2.47;;;;;;;;;;5048387;28;20221;-71
2024/01/16 07:29:50;;;;;;;4.60;2.70;;;;;;;;;;5031827;28;21169;-71
2024/01/16 07:32:16;;;;;;;6.27;2.93;;;;;;;;;;5048081;28;20247;-71
2024/01/16 07:34:41;;;;;;;3.13;2.30;;;;;;;;;;5030833;28;20232;-72
2024/01/16 07:37:06;;;;;;;3.00;2.23;;;;;;;;;;5064098;28;20890;-73
2024/01/16 07:39:31;;;;;;;3.50;2.10;;;;;;;;;;5031197;28;20625;-72
2024/01/16 07:41:57;;;;;;;3.13;2.30;;;;;;;;;;5046860;28;20308;-73
2024/01/16 07:44:22;;;;;;;3.73;2.23;;;;;;;;;;5031121;28;20220;-73
2024/01/16 07:46:47;;;;;;;4.43;2.30;;;;;;;;;;5064161;28;20248;-73
2024/01/16 07:49:13;;;;;;;3.93;2.47;;;;;;;;;;5062889;28;20232;-73
2024/01/16 07:51:38;;;;;;;3.87;2.47;;;;;;;;;;5031358;28;20217;-73
2024/01/16 07:54:05;;;;;;;3.73;2.40;;;;;;;;;;5047529;28;20228;-72
2024/01/16 07:56:30;;;;;;;8.70;3.90;;;;;;;;;;5031472;28;20664;-72
2024/01/16 07:58:56;;;;;;;9.27;3.80;;;;;;;;;;5065412;28;20244;-74
2024/01/16 08:01:21;;;;;;;6.03;3.20;;;;;;;;;;5065014;28;20888;-73
2024/01/16 08:03:46;;;;;;;7.67;3.30;;;;;;;;;;5063999;28;20300;-72
2024/01/16 08:06:12;;;;;;;4.07;2.20;;;;;;;;;;5046729;28;20288;-72
2024/01/16 08:08:37;;;;;;;3.63;2.30;;;;;;;;;;5047611;28;21020;-72
2024/01/16 08:11:02;;;;;;;4.00;2.60;;;;;;;;;;5045917;28;20658;-73
2024/01/16 08:13:28;;;;;;;3.87;2.40;;;;;;;;;;5065975;28;20256;-73
2024/01/16 08:15:53;;;;;;;3.43;2.20;;;;;;;;;;5063953;28;20217;-73
2024/01/16 08:18:19;;;;;;;3.80;2.30;;;;;;;;;;5065929;28;20943;-73
2024/01/16 08:20:44;;;;;;;2.90;2.10;;;;;;;;;;5065782;28;20654;-74
2024/01/16 08:23:09;;;;;;;4.13;2.00;;;;;;;;;;5064986;28;20307;-72
2024/01/16 08:25:34;;;;;;;3.63;2.37;;;;;;;;;;5046719;28;20209;-73
2024/01/16 08:28:00;;;;;;;3.70;2.10;;;;;;;;;;5064172;28;20228;-73
2024/01/16 08:30:26;;;;;;;3.67;2.17;;;;;;;;;;5064096;28;20212;-72
2024/01/16 08:32:51;;;;;;;4.70;2.40;;;;;;;;;;5030208;28;20302;-73
2024/01/16 08:35:17;;;;;;;4.57;2.70;;;;;;;;;;5063850;28;20674;-72
2024/01/16 08:37:42;;;;;;;4.43;2.80;;;;;;;;;;5047396;28;20356;-73
2024/01/16 08:40:07;;;;;;;4.47;2.80;;;;;;;;;;5045710;28;20231;-73
2024/01/16 08:42:33;;;;;;;4.43;2.80;;;;;;;;;;5065599;28;20224;-72
2024/01/16 08:44:58;;;;;;;6.13;2.87;;;;;;;;;;5062946;28;20379;-72
2024/01/16 08:47:24;;;;;;;6.97;3.50;;;;;;;;;;5042945;28;20217;-72
2024/01/16 08:49:49;;;;;;;7.77;2.40;;;;;;;;;;5062766;28;20220;-73
2024/01/16 08:52:15;;;;;;;5.67;2.80;;;;;;;;;;5046603;28;20224;-73
2024/01/16 08:54:41;;;;;;;5.10;2.50;;;;;;;;;;5046049;28;20302;-74
2024/01/16 08:57:06;;;;;;;6.13;2.80;;;;;;;;;;5047283;28;20314;-73
2024/01/16 08:59:32;;;;;;;4.10;2.60;;;;;;;;;;5065507;28;20293;-73
2024/01/16 09:01:57;;;;;;;4.93;2.60;;;;;;;;;;5029801;28;20212;-73
2024/01/16 09:04:23;;;;;;;4.60;2.57;;;;;;;;;;5064845;28;20804;-73
2024/01/16 09:06:48;;;;;;;5.97;2.60;;;;;;;;;;5065499;28;20216;-73
2024/01/16 09:09:15;;;;;;;4.70;2.73;;;;;;;;;;5063706;28;20235;-71
2024/01/16 09:11:41;;;;;;;4.10;2.60;;;;;;;;;;5029845;28;20817;-73
2024/01/16 09:14:06;;;;;;;5.53;2.70;;;;;;;;;;5046102;28;20247;-73
2024/01/16 09:16:31;;;;;;;5.00;2.80;;;;;;;;;;5062844;28;20307;-72
2024/01/16 09:18:57;;;;;;;6.60;2.77;;;;;;;;;;5061936;28;20245;-73
2024/01/16 09:21:22;;;;;;;4.57;2.80;;;;;;;;;;5046706;28;20250;-73
2024/01/16 09:23:48;;;;;;;3.27;2.40;;;;;;;;;;5046466;28;20726;-74
2024/01/16 09:26:13;;;;;;;6.37;2.60;;;;;;;;;;5064430;28;20625;-74
2024/01/16 09:28:39;;;;;;;3.23;2.43;;;;;;;;;;5046742;28;20702;-74
2024/01/16 09:31:05;;;;;;;7.23;2.70;;;;;;;;;;5045826;28;21170;-73
2024/01/16 09:33:31;;;;;;;4.53;2.40;;;;;;;;;;5062728;28;21175;-74
2024/01/16 09:35:56;;;;;;;4.13;2.00;;;;;;;;;;5063501;28;20228;-73
2024/01/16 09:38:21;;;;;;;5.57;2.30;;;;;;;;;;5064359;28;20225;-73
2024/01/16 09:40:47;;;;;;;5.03;2.30;;;;;;;;;;5046307;28;20219;-73
2024/01/16 09:43:13;;;;;;;3.87;2.50;;;;;;;;;;5044299;28;20231;-73
2024/01/16 09:45:41;;;;;;;3.83;2.53;;;;;;;;;;5046159;28;20949;-73
2024/01/16 09:48:07;;;;;;;6.13;2.30;;;;;;;;;;5028470;28;20240;-73
2024/01/16 09:50:33;;;;;;;5.03;2.60;;;;;;;;;;5028971;28;20232;-73
2024/01/16 09:52:58;;;;;;;4.87;2.40;;;;;;;;;;5046047;28;20216;-72
2024/01/16 09:55:23;;;;;;;5.07;2.47;;;;;;;;;;5029801;28;20701;-72
2024/01/16 09:57:50;;;;;;;4.50;2.43;;;;;;;;;;5061502;28;20275;-73
2024/01/16 10:00:15;;;;;;;4.00;2.20;;;;;;;;;;5044630;28;20760;-73
2024/01/16 10:02:41;;;;;;;3.63;2.30;;;;;;;;;;5029407;28;20220;-74
2024/01/16 10:05:08;;;;;;;4.77;2.40;;;;;;;;;;5045291;28;20224;-73
2024/01/16 10:07:33;;;;;;;8.77;2.60;;;;;;;;;;5063921;28;20285;-73
2024/01/16 10:09:58;;;;;;;5.03;2.87;;;;;;;;;;5028236;28;20232;-74
2024/01/16 10:12:24;;;;;;;3.27;2.53;;;;;;;;;;5045633;28;20220;-71
2024/01/16 10:14:51;;;;;;;5.63;2.73;;;;;;;;;;5061984;28;20265;-73
2024/01/16 10:17:17;;;;;;;6.13;2.70;;;;;;;;;;5028958;28;20213;-72
2024/01/16 10:19:50;;;;;;;5.40;2.70;;;;;;;;;;5063575;28;20209;-72
2024/01/16 10:22:25;;;;;;;3.93;2.57;;;;;;;;;;5061077;28;20231;-72
2024/01/16 10:24:50;;;;;;;4.97;2.57;;;;;;;;;;5045982;28;20219;-73
2024/01/16 10:27:18;;;;;;;3.40;2.40;;;;;;;;;;5061350;28;20263;-73
2024/01/16 10:29:59;;;;;;;4.63;2.73;;;;;;;;;;5062726;28;20273;-74
2024/01/16 10:32:31;;;;;;;5.87;2.50;;;;;;;;;;5060138;28;20290;-74
2024/01/16 10:35:07;;;;;;;6.73;2.60;;;;;;;;;;5044226;28;20232;-74
2024/01/16 10:37:43;;;;;;;4.80;2.60;;;;;;;;;;5027314;28;20708;-74
2024/01/16 10:40:08;;;;;;;3.57;2.43;;;;;;;;;;5036979;28;20229;-71
2024/01/16 10:42:34;;;;;;;4.97;2.60;;;;;;;;;;5040382;28;20224;-72
2024/01/16 10:44:59;;;;;;;5.60;2.60;;;;;;;;;;5061225;28;20224;-72
2024/01/16 10:47:24;;;;;;;6.87;2.83;;;;;;;;;;5028241;28;20710;-72
2024/01/16 10:49:50;;;;;;;6.80;2.93;;;;;;;;;;5044831;28;20651;-72
2024/01/16 10:52:16;;;;;;;3.83;2.50;;;;;;;;;;5044283;28;20701;-72
2024/01/16 10:54:41;;;;;;;3.33;2.33;;;;;;;;;;5028384;28;20286;-72
2024/01/16 10:57:06;;;;;;;4.40;2.60;;;;;;;;;;5027599;28;20264;-72
2024/01/16 10:59:34;;;;;;;5.20;2.90;;;;;;;;;;5043902;28;20228;-72
2024/01/16 11:02:00;;;;;;;4.03;2.67;;;;;;;;;;5062520;28;20224;-72
2024/01/16 11:04:25;;;;;;;3.10;2.27;;;;;;;;;;5045124;28;20283;-72
2024/01/16 11:06:54;;;;;;;3.80;2.30;;;;;;;;;;5044878;28;20220;-72
2024/01/16 11:09:19;;;;;;;3.73;2.50;;;;;;;;;;5043915;28;20323;-73
2024/01/16 11:11:45;;;;;;;4.60;2.77;;;;;;;;;;5045250;28;20307;-72
2024/01/16 11:14:11;;;;;;;4.97;2.70;;;;;;;;;;5028014;28;20240;-72
2024/01/16 11:16:36;;;;;;;5.50;2.50;;;;;;;;;;5044803;28;20213;-72
2024/01/16 11:19:02;;;;;;;4.53;2.70;;;;;;;;;;5044714;28;20221;-72
2024/01/16 11:21:28;;;;;;;4.93;2.70;;;;;;;;;;5063413;28;20221;-72
2024/01/16 11:23:53;;;;;;;7.13;2.77;;;;;;;;;;5043792;28;20278;-73
2024/01/16 11:26:28;;;;;;;7.70;2.90;;;;;;;;;;5063064;28;20228;-72
2024/01/16 11:28:56;;;;;;;6.17;2.57;;;;;;;;;;5022688;28;20236;-71
2024/01/16 11:31:27;;;;;;;4.67;2.90;;;;;;;;;;5062470;28;20447;-72
2024/01/16 11:33:53;;;;;;;5.70;2.70;;;;;;;;;;5061519;28;20240;-73
2024/01/16 11:36:37;;;;;;;3.83;2.60;;;;;;;;;;5061448;28;20213;-73
2024/01/16 11:39:02;;;;;;;4.63;3.07;;;;;;;;;;5044880;28;20239;-72
2024/01/16 11:41:46;;;;;;;8.03;2.83;;;;;;;;;;5066697;28;20221;-72
2024/01/16 11:44:29;;;;;;;3.67;2.57;;;;;;;;;;5064551;28;20795;-72
2024/01/16 11:47:01;;;;;;;5.73;2.80;;;;;;;;;;5047895;28;20212;-73
2024/01/16 11:49:27;;;;;;;5.97;2.70;;;;;;;;;;5031490;28;20274;-73
2024/01/16 11:51:52;;;;;;;6.87;3.00;;;;;;;;;;5047245;28;20224;-72
2024/01/16 11:54:17;;;;;;;4.70;2.83;;;;;;;;;;5066323;28;20271;-72
2024/01/16 11:57:06;;;;;;;6.53;2.93;;;;;;;;;;5065982;28;21130;-71
2024/01/16 11:59:50;;;;;;;5.37;3.10;;;;;;;;;;5011931;28;20694;-72
2024/01/16 12:02:18;;;;;;;4.70;3.13;;;;;;;;;;5065753;28;20221;-72
2024/01/16 12:04:46;;;;;;;5.33;2.70;;;;;;;;;;5048326;28;20292;-72
2024/01/16 12:07:11;;;;;;;5.80;2.87;;;;;;;;;;5063272;28;20228;-72
2024/01/16 12:09:36;;;;;;;4.67;2.90;;;;;;;;;;5046730;28;20236;-72
2024/01/16 12:12:02;;;;;;;5.73;3.40;;;;;;;;;;5063442;28;20229;-73
2024/01/16 12:14:28;;;;;;;8.33;3.50;;;;;;;;;;5047067;28;20240;-72
2024/01/16 12:17:02;;;;;;;5.03;3.20;;;;;;;;;;5029966;28;20224;-71
2024/01/16 12:19:27;;;;;;;6.00;3.43;;;;;;;;;;5030264;28;20235;-72
2024/01/16 12:21:52;;;;;;;6.77;3.30;;;;;;;;;;5064096;28;20217;-72
2024/01/16 12:24:18;;;;;;;6.17;3.20;;;;;;;;;;5047081;28;20342;-71
2024/01/16 12:26:43;;;;;;;5.53;2.90;;;;;;;;;;5064271;28;20620;-72
2024/01/16 12:29:09;;;;;;;5.70;3.00;;;;;;;;;;5046733;28;20728;-71
2024/01/16 12:31:34;;;;;;;4.37;2.70;;;;;;;;;;5065265;28;20306;-72
2024/01/16 12:34:07;;;;;;;7.73;3.20;;;;;;;;;;5063716;28;20271;-72
2024/01/16 12:36:32;;;;;;;5.80;3.70;;;;;;;;;;5064010;28;20311;-71
2024/01/16 12:38:57;;;;;;;8.23;3.30;;;;;;;;;;5046578;28;20366;-72
2024/01/16 12:41:23;;;;;;;4.97;3.00;;;;;;;;;;5065486;28;20244;-70
2024/01/16 12:43:51;;;;;;;5.20;2.90;;;;;;;;;;5045334;28;20221;-72
2024/01/16 12:46:19;;;;;;;5.50;2.83;;;;;;;;;;5030284;28;20382;-72
2024/01/16 12:48:44;;;;;;;5.03;3.00;;;;;;;;;;5047078;28;20232;-73
2024/01/16 12:51:12;;;;;;;8.70;3.20;;;;;;;;;;5044526;28;20601;-73
2024/01/16 12:53:39;;;;;;;5.07;2.80;;;;;;;;;;5045863;28;20231;-74
2024/01/16 12:56:04;;;;;;;6.23;2.90;;;;;;;;;;5030002;28;20296;-74
2024/01/16 12:58:36;;;;;;;4.53;3.00;;;;;;;;;;5046905;28;20741;-72
2024/01/16 13:01:21;;;;;;;5.97;3.00;;;;;;;;;;5046567;28;20213;-73
2024/01/16 13:03:46;;;;;;;5.93;3.30;;;;;;;;;;5045506;28;21002;-72
2024/01/16 13:06:11;;;;;;;7.17;3.70;;;;;;;;;;5046239;28;20217;-74
2024/01/16 13:08:38;;;;;;;6.57;3.10;;;;;;;;;;5047332;28;20240;-73
2024/01/16 13:11:04;;;;;;;5.13;2.90;;;;;;;;;;5045866;28;20225;-74
2024/01/16 13:13:29;;;;;;;4.53;2.87;;;;;;;;;;5028903;28;20777;-74
2024/01/16 13:15:54;;;;;;;8.30;3.40;;;;;;;;;;5064302;28;20217;-73
2024/01/16 13:18:23;;;;;;;5.10;3.07;;;;;;;;;;5030148;28;20710;-73
2024/01/16 13:20:49;;;;;;;5.30;3.40;;;;;;;;;;5045931;28;20228;-74
2024/01/16 13:23:14;;;;;;;8.70;3.30;;;;;;;;;;5029023;28;20228;-73
2024/01/16 13:25:41;;;;;;;5.10;3.30;;;;;;;;;;5046163;28;20224;-72
2024/01/16 13:28:07;;;;;;;5.40;3.20;;;;;;;;;;5045043;28;20285;-73
2024/01/16 13:30:33;;;;;;;5.03;3.10;;;;;;;;;;5046760;28;20236;-74
2024/01/16 13:32:58;;;;;;;6.47;3.30;;;;;;;;;;5062502;28;20220;-74
2024/01/16 13:35:24;;;;;;;6.93;3.00;;;;;;;;;;5062196;28;20324;-74
2024/01/16 13:37:50;;;;;;;7.03;3.20;;;;;;;;;;5046553;28;20228;-73
2024/01/16 13:40:18;;;;;;;5.10;3.20;;;;;;;;;;5062407;28;20770;-73
2024/01/16 13:42:44;;;;;;;5.10;3.10;;;;;;;;;;5045045;28;20224;-74
2024/01/16 13:45:09;;;;;;;5.40;3.10;;;;;;;;;;5045518;28;20683;-73
2024/01/16 13:47:39;;;;;;;6.80;3.30;;;;;;;;;;5046383;28;20717;-73
2024/01/16 13:50:04;;;;;;;6.03;3.30;;;;;;;;;;5044509;28;20237;-74
2024/01/16 13:52:30;;;;;;;5.73;3.17;;;;;;;;;;5046531;28;20829;-72
2024/01/16 13:54:57;;;;;;;6.40;3.50;;;;;;;;;;5028334;28;20232;-71
2024/01/16 13:57:22;;;;;;;7.07;3.90;;;;;;;;;;5029661;28;20221;-72
2024/01/16 13:59:48;;;;;;;5.23;3.23;;;;;;;;;;5029217;28;20220;-72
2024/01/16 14:02:13;;;;;;;7.27;3.50;;;;;;;;;;5043150;28;20244;-72
2024/01/16 14:04:38;;;;;;;8.30;3.93;;;;;;;;;;5045513;28;20228;-72
2024/01/16 14:07:05;;;;;;;8.13;3.90;;;;;;;;;;5028392;28;20320;-73
2024/01/16 14:09:34;;;;;;;9.30;3.90;;;;;;;;;;5027843;28;20257;-72
2024/01/16 14:11:59;;;;;;;10.43;3.60;;;;;;;;;;5061785;28;20220;-73
2024/01/16 14:14:25;;;;;;;8.17;3.50;;;;;;;;;;5028431;28;20814;-72
2024/01/16 14:16:50;;;;;;;8.00;3.57;;;;;;;;;;5045714;28;20225;-71
2024/01/16 14:19:17;;;;;;;6.10;3.07;;;;;;;;;;5062597;28;20267;-71
2024/01/16 14:21:42;;;;;;;7.37;3.20;;;;;;;;;;5061330;28;20224;-72
2024/01/16 14:24:07;;;;;;;5.83;2.87;;;;;;;;;;5043274;28;20271;-72
2024/01/16 14:26:34;;;;;;;6.33;3.37;;;;;;;;;;5029148;28;20273;-72
2024/01/16 14:28:59;;;;;;;5.67;3.07;;;;;;;;;;5045084;28;20217;-73